Time;durP1;ratioP1;P1;durP2;ratioP2;P2;SDS_P1;SDS_P2;PMS_P1;PMS_P2;Temp;Humidity;BMP_temperature;BMP_pressure;BME280_temperature;BME280_humidity;BME280_pressure;Samples;Min_cycle;Max_cycle;Signal;HPM_P1;HPM_P2
2022/07/09 00:01:58;;;;;;;14.75;5.18;;;16.20;99.90;;;;;;4990409;28;20089;-74
2022/07/09 00:04:24;;;;;;;10.32;4.95;;;16.20;99.90;;;;;;4990286;28;20089;-75
2022/07/09 00:06:49;;;;;;;12.55;5.00;;;16.10;99.90;;;;;;4990124;28;20046;-74
2022/07/09 00:09:15;;;;;;;14.30;4.53;;;16.10;99.90;;;;;;4990168;28;20057;-75
2022/07/09 00:11:41;;;;;;;16.30;5.07;;;16.10;99.90;;;;;;4989754;28;20050;-74
2022/07/09 00:14:06;;;;;;;14.23;4.78;;;16.20;99.90;;;;;;4990517;28;20374;-74
2022/07/09 00:16:32;;;;;;;10.77;4.57;;;16.10;99.90;;;;;;4990258;28;20126;-74
2022/07/09 00:18:58;;;;;;;14.38;4.72;;;16.00;99.90;;;;;;4972970;28;20120;-74
2022/07/09 00:21:23;;;;;;;19.25;5.28;;;16.10;99.90;;;;;;4990110;28;20814;-75
2022/07/09 00:23:50;;;;;;;13.10;5.00;;;16.10;99.90;;;;;;4990381;28;20106;-74
2022/07/09 00:26:15;;;;;;;11.77;5.20;;;16.00;99.90;;;;;;4972549;28;20073;-75
2022/07/09 00:28:41;;;;;;;18.33;5.78;;;16.00;99.90;;;;;;4990179;28;20452;-74
2022/07/09 00:31:07;;;;;;;13.43;5.68;;;16.20;99.90;;;;;;4990328;28;20043;-75
2022/07/09 00:33:33;;;;;;;14.38;5.72;;;16.00;99.90;;;;;;4990203;28;20101;-75
2022/07/09 00:35:58;;;;;;;16.63;5.78;;;16.00;99.90;;;;;;4989910;28;20080;-74
2022/07/09 00:38:24;;;;;;;16.65;5.25;;;16.10;99.90;;;;;;4989888;28;20046;-75
2022/07/09 00:40:50;;;;;;;11.85;5.32;;;16.00;99.90;;;;;;4972802;28;20046;-75
2022/07/09 00:43:21;;;;;;;14.95;6.03;;;16.00;99.90;;;;;;4989751;28;20060;-75
2022/07/09 00:45:47;;;;;;;21.85;6.65;;;16.00;99.90;;;;;;4989939;28;20047;-75
2022/07/09 00:48:14;;;;;;;16.67;6.40;;;16.00;99.90;;;;;;4989827;28;20050;-74
2022/07/09 00:50:41;;;;;;;17.10;5.60;;;16.10;99.90;;;;;;4991205;28;20050;-75
2022/07/09 00:53:13;;;;;;;15.05;6.68;;;16.10;99.90;;;;;;4993281;28;20073;-74
2022/07/09 00:55:40;;;;;;;20.98;6.80;;;16.00;99.90;;;;;;4975734;28;20070;-75
2022/07/09 00:58:06;;;;;;;17.10;6.78;;;16.10;99.90;;;;;;4992699;28;20169;-75
2022/07/09 01:00:34;;;;;;;20.88;6.88;;;16.00;99.90;;;;;;4975956;28;20050;-75
2022/07/09 01:02:59;;;;;;;18.08;6.15;;;16.10;99.90;;;;;;4993167;28;20069;-75
2022/07/09 01:05:25;;;;;;;17.23;6.50;;;16.10;99.90;;;;;;4993168;28;20058;-74
2022/07/09 01:07:51;;;;;;;19.92;6.32;;;16.20;99.90;;;;;;4975598;28;20381;-76
2022/07/09 01:10:17;;;;;;;18.85;6.45;;;16.10;99.90;;;;;;4992609;28;20121;-75
2022/07/09 01:12:44;;;;;;;20.65;6.10;;;16.10;99.90;;;;;;4975304;28;20050;-75
2022/07/09 01:15:10;;;;;;;20.05;7.00;;;16.10;99.90;;;;;;4993051;28;20105;-76
2022/07/09 01:17:39;;;;;;;18.60;7.22;;;16.10;99.90;;;;;;4992989;28;20078;-75
2022/07/09 01:20:06;;;;;;;14.18;6.10;;;16.10;99.90;;;;;;4992467;28;20089;-75
2022/07/09 01:22:32;;;;;;;15.82;6.53;;;16.10;99.90;;;;;;4993038;28;20053;-75
2022/07/09 01:25:00;;;;;;;15.88;6.22;;;16.20;99.90;;;;;;4992987;28;20066;-75
2022/07/09 01:27:25;;;;;;;22.20;6.82;;;16.20;99.90;;;;;;4993033;28;20557;-75
2022/07/09 01:29:51;;;;;;;16.10;7.05;;;16.10;99.90;;;;;;4992091;28;20121;-75
2022/07/09 01:32:17;;;;;;;18.70;6.35;;;16.20;99.90;;;;;;4992879;28;20595;-76
2022/07/09 01:34:43;;;;;;;18.35;6.85;;;16.20;99.90;;;;;;4992582;28;20438;-74
2022/07/09 01:37:09;;;;;;;19.17;6.30;;;16.30;99.90;;;;;;4992510;28;20062;-75
2022/07/09 01:39:35;;;;;;;19.70;7.07;;;16.30;99.90;;;;;;4992946;28;20050;-75
2022/07/09 01:42:00;;;;;;;21.35;8.10;;;16.20;99.90;;;;;;4992400;28;20045;-76
2022/07/09 01:44:26;;;;;;;17.38;7.05;;;16.20;99.90;;;;;;4992319;28;20494;-76
2022/07/09 01:46:51;;;;;;;20.92;8.23;;;16.30;99.90;;;;;;4992456;28;20100;-76
2022/07/09 01:49:17;;;;;;;19.67;7.85;;;16.30;99.90;;;;;;4992373;28;20054;-77
2022/07/09 01:51:43;;;;;;;16.45;8.15;;;16.20;99.90;;;;;;4973759;28;20049;-74
2022/07/09 01:54:08;;;;;;;16.55;7.13;;;16.20;99.90;;;;;;4992428;28;20054;-75
2022/07/09 01:56:35;;;;;;;16.63;6.85;;;16.20;99.90;;;;;;4992362;28;20046;-75
2022/07/09 01:59:01;;;;;;;19.80;7.28;;;16.20;99.90;;;;;;4974671;28;20141;-75
2022/07/09 02:01:27;;;;;;;17.77;7.90;;;16.20;99.90;;;;;;4989667;28;20421;-72
2022/07/09 02:03:53;;;;;;;21.63;8.38;;;16.20;99.90;;;;;;4990952;28;20125;-75
2022/07/09 02:06:18;;;;;;;18.83;7.22;;;16.20;99.90;;;;;;4974143;28;20129;-71
2022/07/09 02:08:45;;;;;;;22.23;7.75;;;16.20;99.90;;;;;;4992373;28;20137;-75
2022/07/09 02:11:10;;;;;;;17.55;7.30;;;16.20;99.90;;;;;;4991794;28;20086;-70
2022/07/09 02:13:36;;;;;;;17.35;8.05;;;16.20;99.90;;;;;;4991359;28;20049;-75
2022/07/09 02:16:03;;;;;;;16.60;7.40;;;16.10;99.90;;;;;;4973378;28;20052;-72
2022/07/09 02:18:28;;;;;;;15.02;6.60;;;16.10;99.90;;;;;;4991459;28;20097;-76
2022/07/09 02:20:55;;;;;;;16.55;6.38;;;16.10;99.90;;;;;;4991896;28;20082;-75
2022/07/09 02:23:22;;;;;;;19.63;7.78;;;16.10;99.90;;;;;;4991411;28;20042;-75
2022/07/09 02:25:48;;;;;;;18.65;7.03;;;16.00;99.90;;;;;;4991799;28;20061;-75
2022/07/09 02:28:13;;;;;;;19.50;7.50;;;16.10;99.90;;;;;;4991420;28;20043;-75
2022/07/09 02:30:39;;;;;;;20.40;7.90;;;16.10;99.90;;;;;;4991056;28;20144;-75
2022/07/09 02:33:05;;;;;;;24.58;7.38;;;16.10;99.90;;;;;;4990278;28;20097;-75
2022/07/09 02:35:31;;;;;;;20.38;7.00;;;16.10;99.90;;;;;;4973764;28;20397;-75
2022/07/09 02:37:56;;;;;;;20.27;7.75;;;16.00;99.90;;;;;;4990203;28;20129;-74
2022/07/09 02:40:22;;;;;;;20.90;7.53;;;16.10;99.90;;;;;;4990935;28;20464;-75
2022/07/09 02:42:48;;;;;;;14.65;6.38;;;16.00;99.90;;;;;;4991130;28;20038;-75
2022/07/09 02:45:13;;;;;;;18.85;7.68;;;16.10;99.90;;;;;;4991192;28;20694;-75
2022/07/09 02:47:39;;;;;;;16.40;6.28;;;16.00;99.90;;;;;;4990608;28;20137;-74
2022/07/09 02:50:05;;;;;;;16.50;6.50;;;16.10;99.90;;;;;;4991311;28;20042;-75
2022/07/09 02:52:31;;;;;;;15.85;7.00;;;16.00;99.90;;;;;;4991029;28;20054;-74
2022/07/09 02:54:57;;;;;;;16.05;6.70;;;16.10;99.90;;;;;;4991136;28;20057;-76
2022/07/09 02:57:22;;;;;;;17.73;6.35;;;16.10;99.90;;;;;;4973780;28;20053;-74
2022/07/09 02:59:48;;;;;;;17.25;6.57;;;15.90;99.90;;;;;;4991284;28;20078;-74
2022/07/09 03:02:13;;;;;;;17.27;6.07;;;16.00;99.90;;;;;;4990320;28;20572;-73
2022/07/09 03:04:39;;;;;;;13.73;5.63;;;16.00;99.90;;;;;;4973599;28;20137;-75
2022/07/09 03:07:05;;;;;;;13.45;5.40;;;15.90;99.90;;;;;;4990389;28;20053;-76
2022/07/09 03:09:30;;;;;;;13.00;5.82;;;15.90;99.90;;;;;;4991077;28;20059;-76
2022/07/09 03:11:56;;;;;;;17.50;5.75;;;15.80;99.90;;;;;;4990966;28;20827;-75
2022/07/09 03:14:22;;;;;;;13.02;6.45;;;15.90;99.90;;;;;;4990538;28;20042;-75
2022/07/09 03:16:47;;;;;;;12.80;6.00;;;15.80;99.90;;;;;;4990567;28;20405;-75
2022/07/09 03:19:13;;;;;;;20.40;6.20;;;15.80;99.90;;;;;;4990519;28;20605;-75
2022/07/09 03:21:39;;;;;;;16.38;5.97;;;15.90;99.90;;;;;;4990536;28;20061;-74
2022/07/09 03:24:05;;;;;;;11.75;6.15;;;15.70;99.90;;;;;;4990068;28;20394;-75
2022/07/09 03:26:31;;;;;;;13.85;5.47;;;15.60;99.90;;;;;;4990876;28;20046;-75
2022/07/09 03:28:56;;;;;;;18.58;5.60;;;15.60;99.90;;;;;;4990301;28;20049;-75
2022/07/09 03:31:22;;;;;;;13.13;5.63;;;15.60;99.90;;;;;;4990601;28;20397;-74
2022/07/09 03:33:49;;;;;;;14.65;5.47;;;15.60;99.90;;;;;;4972366;28;20058;-74
2022/07/09 03:36:15;;;;;;;19.85;6.88;;;15.50;99.90;;;;;;4990433;28;20046;-75
2022/07/09 03:38:40;;;;;;;19.30;5.50;;;15.60;99.90;;;;;;4990138;28;20054;-75
2022/07/09 03:41:06;;;;;;;17.67;6.85;;;15.60;99.90;;;;;;4973077;28;20118;-75
2022/07/09 03:43:32;;;;;;;15.07;5.57;;;15.60;99.90;;;;;;4990217;28;20057;-75
2022/07/09 03:45:58;;;;;;;16.67;5.63;;;15.60;99.90;;;;;;4990734;28;20093;-75
2022/07/09 03:48:24;;;;;;;16.98;6.30;;;15.60;99.90;;;;;;4990255;28;20489;-75
2022/07/09 03:50:49;;;;;;;9.88;5.20;;;15.60;99.90;;;;;;4990333;28;20141;-75
2022/07/09 03:53:15;;;;;;;10.55;5.30;;;15.60;99.90;;;;;;4989822;28;20094;-75
2022/07/09 03:55:41;;;;;;;17.05;6.10;;;15.60;99.90;;;;;;4989883;28;20057;-75
2022/07/09 03:58:06;;;;;;;14.05;5.25;;;15.60;99.90;;;;;;4990439;28;20042;-76
2022/07/09 04:00:32;;;;;;;11.98;5.78;;;15.70;99.90;;;;;;4990623;28;20760;-75
2022/07/09 04:02:58;;;;;;;13.90;5.93;;;15.80;99.90;;;;;;4991028;28;20057;-76
2022/07/09 04:05:23;;;;;;;15.50;5.47;;;15.70;99.90;;;;;;4989786;28;20453;-75
2022/07/09 04:07:49;;;;;;;14.55;5.60;;;15.70;99.90;;;;;;4990241;28;20038;-75
2022/07/09 04:10:15;;;;;;;17.83;5.55;;;15.70;99.90;;;;;;4990165;28;20489;-74
2022/07/09 04:12:41;;;;;;;13.02;5.00;;;15.80;99.90;;;;;;4990229;28;20038;-76
2022/07/09 04:15:07;;;;;;;14.15;5.10;;;15.80;99.90;;;;;;4990228;28;20042;-75
2022/07/09 04:17:34;;;;;;;13.68;5.65;;;15.80;99.90;;;;;;4990206;28;20046;-75
2022/07/09 04:19:59;;;;;;;13.98;5.90;;;15.80;99.90;;;;;;4990270;28;20057;-74
2022/07/09 04:22:26;;;;;;;9.70;5.60;;;15.80;99.90;;;;;;4990475;28;20042;-76
2022/07/09 04:24:51;;;;;;;12.98;5.25;;;15.80;99.90;;;;;;4990991;28;20409;-76
2022/07/09 04:27:17;;;;;;;12.82;5.57;;;15.90;99.90;;;;;;4976048;28;20050;-73
2022/07/09 04:29:42;;;;;;;13.32;5.70;;;15.90;99.90;;;;;;4976114;28;20049;-74
2022/07/09 04:32:08;;;;;;;12.93;6.00;;;15.90;99.90;;;;;;4976196;28;20168;-75
2022/07/09 04:34:34;;;;;;;11.93;5.60;;;15.80;99.90;;;;;;4993857;28;20042;-75
2022/07/09 04:36:59;;;;;;;12.48;5.72;;;16.00;99.90;;;;;;4975269;28;20124;-74
2022/07/09 04:39:25;;;;;;;13.18;5.25;;;16.00;99.90;;;;;;4993526;28;20146;-74
2022/07/09 04:41:51;;;;;;;14.55;5.13;;;16.00;99.90;;;;;;4993637;28;20050;-76
2022/07/09 04:44:17;;;;;;;15.40;5.25;;;16.10;99.90;;;;;;4993847;28;20504;-74
2022/07/09 04:46:43;;;;;;;14.10;5.28;;;16.10;99.90;;;;;;4993721;28;20038;-74
2022/07/09 04:49:09;;;;;;;11.65;5.45;;;16.10;99.90;;;;;;4976187;28;20054;-75
2022/07/09 04:51:35;;;;;;;14.02;5.57;;;16.00;99.90;;;;;;4993070;28;20112;-76
2022/07/09 04:54:01;;;;;;;15.48;5.95;;;16.10;99.90;;;;;;4993350;28;20046;-75
2022/07/09 04:56:26;;;;;;;14.82;5.50;;;16.30;99.90;;;;;;4993404;28;20061;-76
2022/07/09 04:58:52;;;;;;;14.23;4.80;;;16.20;99.90;;;;;;4993112;28;20049;-75
2022/07/09 05:01:19;;;;;;;16.83;4.95;;;16.20;99.90;;;;;;4993297;28;20477;-75
2022/07/09 05:03:46;;;;;;;11.07;4.88;;;16.30;99.90;;;;;;4993206;28;20050;-75
2022/07/09 05:06:16;;;;;;;15.90;5.85;;;16.30;99.90;;;;;;4974473;28;20483;-75
2022/07/09 05:08:42;;;;;;;10.70;5.05;;;16.30;99.90;;;;;;4992317;28;20432;-75
2022/07/09 05:11:10;;;;;;;12.27;5.38;;;16.40;99.90;;;;;;4975452;28;20078;-76
2022/07/09 05:13:42;;;;;;;12.40;5.38;;;16.30;99.90;;;;;;4993028;28;20061;-75
2022/07/09 05:16:08;;;;;;;12.15;5.43;;;16.50;99.90;;;;;;4992967;28;20393;-76
2022/07/09 05:18:34;;;;;;;12.10;5.68;;;16.50;99.90;;;;;;4975051;28;20117;-76
2022/07/09 05:20:59;;;;;;;14.32;5.80;;;16.60;99.90;;;;;;4993089;28;20062;-75
2022/07/09 05:23:25;;;;;;;11.23;5.63;;;16.60;99.90;;;;;;4991938;28;20046;-75
2022/07/09 05:25:51;;;;;;;11.10;5.68;;;16.60;99.90;;;;;;4992788;28;20046;-75
2022/07/09 05:28:16;;;;;;;11.68;5.30;;;16.70;99.90;;;;;;4992604;28;20402;-75
2022/07/09 05:30:42;;;;;;;14.82;5.65;;;16.70;99.90;;;;;;4992552;28;20050;-75
2022/07/09 05:33:08;;;;;;;13.02;5.22;;;16.80;99.90;;;;;;4992833;28;20529;-76
2022/07/09 05:35:33;;;;;;;15.82;5.07;;;16.80;99.90;;;;;;4974735;28;20437;-77
2022/07/09 05:37:59;;;;;;;10.35;4.70;;;16.80;99.90;;;;;;4992227;28;20054;-76
2022/07/09 05:40:25;;;;;;;11.18;4.40;;;17.10;99.90;;;;;;4991975;28;20473;-76
2022/07/09 05:42:51;;;;;;;10.20;4.47;;;16.80;99.90;;;;;;4992379;28;20486;-77
2022/07/09 05:45:16;;;;;;;9.48;4.32;;;16.90;99.90;;;;;;4974661;28;20660;-75
2022/07/09 05:47:43;;;;;;;11.98;4.45;;;16.80;99.90;;;;;;4992354;28;20046;-75
2022/07/09 05:50:08;;;;;;;10.73;5.03;;;16.90;99.90;;;;;;4991967;28;20050;-75
2022/07/09 05:52:34;;;;;;;10.13;4.50;;;16.90;99.90;;;;;;4992068;28;20713;-74
2022/07/09 05:55:00;;;;;;;11.20;4.30;;;17.00;99.90;;;;;;4992099;28;20409;-78
2022/07/09 05:57:25;;;;;;;14.88;4.03;;;17.10;99.90;;;;;;4992212;28;20046;-76
2022/07/09 05:59:51;;;;;;;12.02;4.25;;;17.10;99.90;;;;;;4992377;28;20073;-76
2022/07/09 06:02:18;;;;;;;10.90;4.10;;;17.30;99.90;;;;;;4991231;28;20045;-76
2022/07/09 06:04:44;;;;;;;9.63;4.22;;;17.20;99.90;;;;;;4991525;28;20397;-76
2022/07/09 06:07:10;;;;;;;11.93;4.13;;;17.20;99.90;;;;;;4991950;28;20046;-77
2022/07/09 06:09:35;;;;;;;7.43;3.50;;;17.20;99.90;;;;;;4991443;28;20540;-76
2022/07/09 06:12:01;;;;;;;15.93;3.78;;;17.20;99.90;;;;;;4991954;28;20074;-77
2022/07/09 06:14:27;;;;;;;13.80;3.97;;;17.20;99.90;;;;;;4991776;28;20060;-76
2022/07/09 06:16:55;;;;;;;8.13;3.38;;;17.20;99.90;;;;;;4992116;28;20085;-76
2022/07/09 06:19:21;;;;;;;10.18;3.38;;;17.20;99.90;;;;;;4991678;28;20529;-76
2022/07/09 06:21:46;;;;;;;7.93;3.45;;;17.30;99.90;;;;;;4991604;28;20141;-75
2022/07/09 06:24:12;;;;;;;11.85;3.65;;;17.40;99.90;;;;;;4991544;28;20046;-77
2022/07/09 06:26:38;;;;;;;10.00;3.55;;;17.30;99.90;;;;;;4974041;28;20378;-75
2022/07/09 06:29:04;;;;;;;8.63;3.40;;;17.40;99.90;;;;;;4991691;28;20515;-77
2022/07/09 06:31:29;;;;;;;11.13;3.42;;;17.40;99.90;;;;;;4974286;28;20061;-76
2022/07/09 06:33:56;;;;;;;10.52;3.38;;;17.40;99.90;;;;;;4991475;28;20112;-77
2022/07/09 06:36:22;;;;;;;9.90;3.38;;;17.50;99.90;;;;;;4991628;28;20104;-77
2022/07/09 06:41:32;;;;;;;7.78;3.35;;;17.60;99.90;;;;;;4991154;28;20054;-76
2022/07/09 06:43:58;;;;;;;11.43;3.40;;;17.60;99.90;;;;;;4991266;28;20053;-77
2022/07/09 06:46:24;;;;;;;7.90;2.97;;;17.60;99.90;;;;;;4973954;28;20531;-77
2022/07/09 06:48:49;;;;;;;7.82;2.70;;;17.70;99.90;;;;;;4990358;28;20050;-77
2022/07/09 06:51:15;;;;;;;9.23;2.92;;;17.70;99.90;;;;;;4991349;28;20042;-77
2022/07/09 06:53:41;;;;;;;8.73;3.10;;;17.70;99.90;;;;;;4990963;28;20054;-77
2022/07/09 06:56:07;;;;;;;8.13;2.65;;;17.70;99.90;;;;;;4990967;28;20048;-77
2022/07/09 06:58:33;;;;;;;12.52;2.67;;;17.70;99.90;;;;;;4991157;28;20082;-78
2022/07/09 07:00:58;;;;;;;13.15;2.75;;;17.80;99.90;;;;;;4990522;28;20548;-78
2022/07/09 07:03:24;;;;;;;8.93;2.53;;;17.80;99.90;;;;;;4991096;28;20821;-76
2022/07/09 07:05:50;;;;;;;7.45;2.20;;;17.80;99.90;;;;;;4991110;28;20081;-76
2022/07/09 07:08:15;;;;;;;11.77;3.08;;;17.90;99.90;;;;;;4991239;28;20050;-78
2022/07/09 07:10:41;;;;;;;8.35;2.38;;;17.80;99.90;;;;;;4991064;28;20084;-80
2022/07/09 07:13:06;;;;;;;10.00;2.28;;;17.90;99.90;;;;;;4991110;28;20069;-79
2022/07/09 07:15:32;;;;;;;10.23;2.50;;;17.90;99.90;;;;;;4974085;28;20046;-75
2022/07/09 07:17:58;;;;;;;9.90;2.13;;;17.90;99.90;;;;;;4973374;28;20058;-77
2022/07/09 07:20:24;;;;;;;7.38;2.03;;;17.90;99.90;;;;;;4991113;28;20042;-76
2022/07/09 07:22:51;;;;;;;12.55;2.22;;;18.00;99.90;;;;;;4973398;28;20517;-76
2022/07/09 07:25:16;;;;;;;7.82;2.10;;;18.10;99.90;;;;;;4990819;28;20546;-76
2022/07/09 07:27:42;;;;;;;9.43;2.22;;;18.10;99.90;;;;;;4972498;28;20181;-76
2022/07/09 07:30:08;;;;;;;7.65;2.40;;;18.20;99.90;;;;;;4990580;28;20038;-76
2022/07/09 07:32:34;;;;;;;5.70;1.85;;;18.30;99.90;;;;;;4973264;28;20482;-77
2022/07/09 07:35:02;;;;;;;6.97;2.55;;;18.50;99.90;;;;;;4990840;28;20057;-77
2022/07/09 07:37:28;;;;;;;11.63;2.00;;;18.60;99.90;;;;;;4990302;28;20401;-74
2022/07/09 07:39:54;;;;;;;6.22;1.85;;;18.70;99.90;;;;;;4990650;28;20046;-77
2022/07/09 07:42:20;;;;;;;8.55;1.85;;;18.80;99.90;;;;;;4990215;28;20042;-79
2022/07/09 07:44:45;;;;;;;8.73;1.90;;;19.00;99.90;;;;;;4990155;28;20050;-77
2022/07/09 07:47:11;;;;;;;11.98;2.67;;;19.00;99.90;;;;;;4990455;28;20425;-78
2022/07/09 07:49:37;;;;;;;7.57;1.50;;;18.90;99.90;;;;;;4990187;28;20057;-78
2022/07/09 07:52:03;;;;;;;9.52;1.70;;;18.90;99.90;;;;;;4989741;28;20062;-78
2022/07/09 07:54:28;;;;;;;4.43;1.27;;;18.80;99.90;;;;;;4971141;28;20101;-80
2022/07/09 07:56:54;;;;;;;7.18;1.40;;;18.80;99.90;;;;;;4973147;28;20049;-81
2022/07/09 07:59:20;;;;;;;9.82;1.67;;;19.00;99.90;;;;;;4991272;28;20051;-78
2022/07/09 08:01:45;;;;;;;5.75;1.52;;;19.30;99.90;;;;;;4994742;28;20482;-78
2022/07/09 08:04:11;;;;;;;11.82;1.65;;;19.50;99.90;;;;;;4994078;28;20568;-79
2022/07/09 08:06:36;;;;;;;4.95;1.40;;;19.60;99.90;;;;;;4994296;28;20077;-78
2022/07/09 08:09:03;;;;;;;4.95;1.42;;;19.70;99.90;;;;;;4994419;28;20042;-84
2022/07/09 08:11:29;;;;;;;7.78;2.25;;;19.90;99.90;;;;;;4993765;28;20452;-79
2022/07/09 08:13:54;;;;;;;5.90;1.40;;;20.20;99.90;;;;;;4993686;28;20034;-80
2022/07/09 08:16:20;;;;;;;5.22;1.30;;;20.40;99.90;;;;;;4994122;28;20489;-79
2022/07/09 08:18:46;;;;;;;5.18;1.38;;;20.50;99.90;;;;;;4994342;28;20054;-79
2022/07/09 08:21:12;;;;;;;13.07;1.48;;;20.70;99.90;;;;;;4994221;28;20049;-79
2022/07/09 08:23:54;;;;;;;5.65;1.10;;;21.00;99.90;;;;;;4993624;28;20046;-77
2022/07/09 08:26:29;;;;;;;7.25;1.73;;;21.30;99.90;;;;;;4974259;28;20043;-77
2022/07/09 08:28:55;;;;;;;6.43;1.55;;;21.20;99.90;;;;;;4974681;28;20441;-79
2022/07/09 08:31:21;;;;;;;5.25;1.15;;;21.00;99.90;;;;;;4974372;28;20086;-82
2022/07/09 08:33:50;;;;;;;4.93;1.30;;;20.80;99.90;;;;;;4941327;28;20472;-79
2022/07/09 08:36:17;;;;;;;7.43;1.48;;;20.90;99.90;;;;;;4990506;28;20401;-78
2022/07/09 08:38:43;;;;;;;7.95;1.63;;;20.90;99.90;;;;;;4993487;28;20038;-80
2022/07/09 08:41:09;;;;;;;9.73;1.83;;;20.80;99.90;;;;;;4993224;28;20046;-79
2022/07/09 08:43:36;;;;;;;9.18;1.30;;;20.60;99.90;;;;;;4993775;28;20053;-78
2022/07/09 08:46:03;;;;;;;8.70;1.52;;;20.50;99.90;;;;;;4993521;28;20436;-77
2022/07/09 08:48:33;;;;;;;8.18;1.63;;;20.20;99.90;;;;;;4993315;28;20657;-75
2022/07/09 08:50:59;;;;;;;6.28;1.95;;;20.30;99.90;;;;;;4993377;28;20117;-79
2022/07/09 08:53:27;;;;;;;6.18;2.03;;;20.60;99.90;;;;;;4993298;28;20065;-78
2022/07/09 08:55:54;;;;;;;5.90;1.27;;;20.70;99.90;;;;;;4975814;28;20055;-76
2022/07/09 08:58:20;;;;;;;6.15;1.33;;;20.90;99.90;;;;;;4993400;28;20780;-78
2022/07/09 09:00:50;;;;;;;6.97;1.27;;;21.00;99.90;;;;;;4992795;28;20070;-78
2022/07/09 09:03:16;;;;;;;7.20;1.17;;;21.00;99.90;;;;;;4958628;28;20571;-78
2022/07/09 09:05:42;;;;;;;5.78;1.27;;;20.70;99.90;;;;;;4993349;28;20054;-78
2022/07/09 09:08:22;;;;;;;4.13;1.10;;;20.60;99.90;;;;;;4993047;28;20383;-78
2022/07/09 09:10:48;;;;;;;6.75;1.10;;;20.80;99.90;;;;;;4992525;28;20390;-80
2022/07/09 09:13:16;;;;;;;7.13;1.30;;;21.10;99.90;;;;;;4992645;28;20069;-77
2022/07/09 09:15:42;;;;;;;6.82;1.50;;;21.40;99.90;;;;;;4993041;28;20088;-78
2022/07/09 09:18:08;;;;;;;8.70;1.20;;;21.70;99.90;;;;;;4992923;28;20474;-78
2022/07/09 09:20:34;;;;;;;6.47;1.50;;;21.60;99.90;;;;;;4993138;28;20052;-78
2022/07/09 09:23:02;;;;;;;7.38;2.03;;;21.90;99.90;;;;;;4975085;28;20045;-81
2022/07/09 09:25:28;;;;;;;8.70;2.08;;;21.90;99.90;;;;;;4975421;28;20042;-77
2022/07/09 09:27:55;;;;;;;14.75;1.73;;;21.90;99.90;;;;;;4993111;28;20038;-84
2022/07/09 09:30:22;;;;;;;11.95;1.50;;;21.90;99.90;;;;;;4993077;28;20045;-80
2022/07/09 09:33:02;;;;;;;8.18;1.10;;;21.70;99.90;;;;;;4974700;28;20042;-82
2022/07/09 09:35:32;;;;;;;8.00;1.75;;;21.90;99.90;;;;;;4975504;28;20366;-76
2022/07/09 09:38:04;;;;;;;10.43;1.60;;;21.80;99.90;;;;;;4975039;28;20054;-81
2022/07/09 09:40:30;;;;;;;8.75;2.00;;;21.70;99.90;;;;;;4975394;28;20549;-78
2022/07/09 09:43:01;;;;;;;6.85;1.50;;;21.30;99.90;;;;;;4992574;28;20030;-83
2022/07/09 09:45:28;;;;;;;14.32;2.00;;;21.40;99.90;;;;;;4992473;28;20351;-81
2022/07/09 09:47:54;;;;;;;15.52;1.73;;;21.20;99.90;;;;;;4992089;28;20042;-81
2022/07/09 09:50:21;;;;;;;8.88;1.83;;;21.40;99.90;;;;;;4992339;28;20042;-78
2022/07/09 09:52:49;;;;;;;8.23;1.35;;;21.50;99.90;;;;;;4992519;28;20090;-77
2022/07/09 09:55:16;;;;;;;6.97;1.20;;;21.70;99.90;;;;;;4991881;28;20046;-79
2022/07/09 09:57:42;;;;;;;7.40;1.50;;;21.70;99.90;;;;;;4980648;28;20128;-77
2022/07/09 10:00:10;;;;;;;7.95;1.30;;;21.80;99.90;;;;;;4992090;28;20531;-82
2022/07/09 10:02:40;;;;;;;5.90;1.10;;;22.00;99.90;;;;;;4990887;28;20050;-80
2022/07/09 10:05:06;;;;;;;6.65;1.20;;;22.10;99.90;;;;;;4991965;28;20264;-79
2022/07/09 10:07:33;;;;;;;4.50;0.95;;;22.30;99.90;;;;;;4991869;28;20053;-82
2022/07/09 10:09:59;;;;;;;7.00;1.60;;;22.50;99.90;;;;;;4991940;28;20050;-80
2022/07/09 10:12:33;;;;;;;9.07;1.33;;;22.30;99.90;;;;;;4992160;28;20093;-81
2022/07/09 10:14:59;;;;;;;5.70;1.30;;;22.20;99.90;;;;;;4992097;28;20046;-83
2022/07/09 10:17:26;;;;;;;7.07;1.48;;;22.30;99.90;;;;;;4974189;28;20114;-78
2022/07/09 10:20:04;;;;;;;7.85;2.15;;;22.20;99.90;;;;;;4991417;28;20049;-80
2022/07/09 10:22:44;;;;;;;12.40;1.30;;;22.00;99.90;;;;;;4973655;28;20093;-79
2022/07/09 10:25:12;;;;;;;6.80;1.55;;;22.00;99.90;;;;;;4973799;28;20046;-78
2022/07/09 10:27:48;;;;;;;4.93;1.25;;;22.20;99.90;;;;;;4991801;28;20058;-89
2022/07/09 10:30:24;;;;;;;9.35;1.75;;;22.20;99.90;;;;;;4974076;28;20053;-82
2022/07/09 10:33:10;;;;;;;8.02;1.25;;;21.80;99.90;;;;;;4991584;28;20111;-82
2022/07/09 10:35:47;;;;;;;8.43;1.20;;;21.50;99.90;;;;;;4973681;28;20206;-81
2022/07/09 10:38:14;;;;;;;10.07;2.22;;;21.20;99.90;;;;;;4991478;28;20572;-80
2022/07/09 10:40:48;;;;;;;8.20;1.70;;;20.80;99.90;;;;;;4991423;28;20100;-84
2022/07/09 10:43:14;;;;;;;10.07;1.35;;;20.60;99.90;;;;;;4974265;28;20536;-80
2022/07/09 10:45:52;;;;;;;9.13;1.80;;;20.50;99.90;;;;;;5107154;27;20431;-79
2022/07/09 10:48:18;;;;;;;11.05;1.75;;;20.60;99.90;;;;;;5107725;28;20101;-80
2022/07/09 10:50:48;;;;;;;9.43;1.50;;;20.50;99.90;;;;;;5105976;28;20048;-80
2022/07/09 10:53:14;;;;;;;13.20;2.28;;;20.40;99.90;;;;;;5089204;28;20113;-79
2022/07/09 10:55:44;;;;;;;9.18;1.80;;;20.30;99.90;;;;;;5106241;28;20051;-82
2022/07/09 10:58:20;;;;;;;8.07;1.73;;;20.30;99.90;;;;;;5067179;28;20098;-84
2022/07/09 11:00:55;;;;;;;12.73;2.28;;;20.30;99.90;;;;;;5066937;28;20052;-83
2022/07/09 11:03:29;;;;;;;10.13;1.98;;;20.30;99.90;;;;;;5066806;28;20092;-79
2022/07/09 11:05:55;;;;;;;9.75;1.50;;;20.40;99.90;;;;;;5099064;28;20045;-78
2022/07/09 11:08:21;;;;;;;10.60;1.65;;;20.30;99.90;;;;;;5085068;28;20082;-82
2022/07/09 11:10:46;;;;;;;9.20;1.38;;;20.60;99.90;;;;;;5087471;28;20071;-79
2022/07/09 11:13:12;;;;;;;7.20;1.48;;;20.50;99.90;;;;;;5087152;28;20097;-79
2022/07/09 11:15:38;;;;;;;4.65;1.10;;;20.90;99.90;;;;;;5085102;28;20389;-82
2022/07/09 11:18:09;;;;;;;7.85;1.27;;;20.80;99.90;;;;;;5086649;28;20056;-78
2022/07/09 11:20:45;;;;;;;5.15;1.17;;;20.90;99.90;;;;;;5085266;28;20044;-77
2022/07/09 11:23:15;;;;;;;7.70;1.10;;;21.00;99.90;;;;;;5086673;28;20054;-84
2022/07/09 11:25:42;;;;;;;7.40;1.60;;;21.20;99.90;;;;;;5086416;28;20094;-82
2022/07/09 11:28:08;;;;;;;4.72;1.17;;;21.40;99.90;;;;;;5087776;28;20404;-83
2022/07/09 11:30:34;;;;;;;9.00;1.20;;;21.60;99.90;;;;;;5086479;28;20055;-82
2022/07/09 11:33:00;;;;;;;5.85;1.00;;;21.90;99.90;;;;;;5086496;28;20040;-75
2022/07/09 11:35:25;;;;;;;6.72;1.10;;;22.10;99.90;;;;;;5086411;28;20078;-81
2022/07/09 11:37:52;;;;;;;8.82;1.55;;;22.30;99.90;;;;;;5086070;28;20083;-82
2022/07/09 11:40:19;;;;;;;4.80;0.70;;;22.30;99.90;;;;;;5103340;28;20415;-81
2022/07/09 11:42:45;;;;;;;4.88;0.90;;;22.50;99.90;;;;;;5106756;28;20055;-84
2022/07/09 11:45:11;;;;;;;4.00;0.70;;;22.50;99.90;;;;;;5106529;28;20055;-81
2022/07/09 11:47:40;;;;;;;5.45;1.00;;;22.60;99.90;;;;;;5105056;28;20131;-85
2022/07/09 11:50:18;;;;;;;7.50;0.80;;;22.70;99.90;;;;;;5105406;28;20058;-84
2022/07/09 11:52:50;;;;;;;4.30;0.82;;;22.70;99.90;;;;;;5106402;28;20040;-83
2022/07/09 11:55:20;;;;;;;4.53;0.63;;;22.70;99.90;;;;;;5103682;28;20051;-83
2022/07/09 11:58:02;;;;;;;5.90;1.17;;;22.80;99.90;;;;;;5078279;28;20149;-81
2022/07/09 12:00:33;;;;;;;6.65;0.98;;;22.80;99.90;;;;;;5071767;28;20130;-79
2022/07/09 12:03:00;;;;;;;6.55;0.93;;;22.90;99.90;;;;;;5083171;28;20053;-78
2022/07/09 12:05:35;;;;;;;7.40;0.93;;;23.00;99.90;;;;;;5092607;28;20080;-77
2022/07/09 12:08:06;;;;;;;6.57;1.05;;;23.00;99.90;;;;;;5090653;28;20040;-80
2022/07/09 12:10:39;;;;;;;4.38;0.90;;;23.20;99.90;;;;;;5092629;28;20044;-79
2022/07/09 12:13:06;;;;;;;4.93;1.17;;;23.30;99.90;;;;;;5092500;28;20442;-82
2022/07/09 12:15:32;;;;;;;7.63;0.90;;;23.20;99.90;;;;;;5090803;28;20434;-79
2022/07/09 12:18:00;;;;;;;3.95;0.82;;;23.30;99.90;;;;;;5089439;28;20098;-81
2022/07/09 12:20:30;;;;;;;5.53;1.00;;;22.90;99.90;;;;;;5090698;28;20557;-79
2022/07/09 12:22:56;;;;;;;5.88;0.98;;;23.10;99.90;;;;;;5091056;28;20837;-76
2022/07/09 12:25:22;;;;;;;11.80;1.05;;;23.10;99.90;;;;;;5081394;28;20044;-76
2022/07/09 12:27:51;;;;;;;7.05;0.90;;;23.20;99.90;;;;;;5072061;28;20044;-82
2022/07/09 12:30:17;;;;;;;8.40;0.75;;;22.90;99.90;;;;;;5071697;28;20063;-77
2022/07/09 12:32:44;;;;;;;5.28;0.90;;;22.90;99.90;;;;;;5071647;28;20502;-81
2022/07/09 12:35:11;;;;;;;6.93;0.80;;;22.90;99.90;;;;;;5072197;28;20082;-78
2022/07/09 12:37:37;;;;;;;7.07;0.98;;;23.20;99.90;;;;;;5072021;28;20053;-80
2022/07/09 12:40:04;;;;;;;5.43;0.93;;;23.40;99.90;;;;;;5071522;28;20044;-78
2022/07/09 12:42:31;;;;;;;6.10;1.00;;;23.10;99.90;;;;;;5071389;28;20090;-79